sensor_id;sensor_type;location;lat;lon;timestamp;P1;durP1;ratioP1;P2;durP2;ratioP2
32780;SDS011;19136;47.032;15.502;2022-10-22T00:00:22;49.75;;;23.98;;
32780;SDS011;19136;47.032;15.502;2022-10-22T00:02:48;46.08;;;22.95;;
32780;SDS011;19136;47.032;15.502;2022-10-22T00:05:13;43.90;;;23.83;;
32780;SDS011;19136;47.032;15.502;2022-10-22T00:07:39;33.75;;;22.52;;
32780;SDS011;19136;47.032;15.502;2022-10-22T00:10:06;41.05;;;22.83;;
32780;SDS011;19136;47.032;15.502;2022-10-22T00:12:33;46.10;;;24.02;;
32780;SDS011;19136;47.032;15.502;2022-10-22T00:14:58;37.25;;;22.50;;
32780;SDS011;19136;47.032;15.502;2022-10-22T00:17:24;38.97;;;24.13;;
32780;SDS011;19136;47.032;15.502;2022-10-22T00:19:49;39.10;;;23.83;;
32780;SDS011;19136;47.032;15.502;2022-10-22T00:22:15;40.63;;;23.95;;
32780;SDS011;19136;47.032;15.502;2022-10-22T00:24:41;37.67;;;22.70;;
32780;SDS011;19136;47.032;15.502;2022-10-22T00:27:07;46.25;;;23.83;;
32780;SDS011;19136;47.032;15.502;2022-10-22T00:29:34;39.00;;;23.35;;
32780;SDS011;19136;47.032;15.502;2022-10-22T00:32:00;49.40;;;23.85;;
32780;SDS011;19136;47.032;15.502;2022-10-22T00:34:26;40.83;;;22.52;;
32780;SDS011;19136;47.032;15.502;2022-10-22T00:36:51;38.08;;;23.50;;
32780;SDS011;19136;47.032;15.502;2022-10-22T00:39:18;36.58;;;21.77;;
32780;SDS011;19136;47.032;15.502;2022-10-22T00:41:45;38.90;;;21.92;;
32780;SDS011;19136;47.032;15.502;2022-10-22T00:47:15;46.50;;;23.50;;
32780;SDS011;19136;47.032;15.502;2022-10-22T00:49:41;36.60;;;21.98;;
32780;SDS011;19136;47.032;15.502;2022-10-22T00:52:07;41.75;;;24.42;;
32780;SDS011;19136;47.032;15.502;2022-10-22T00:54:33;38.97;;;22.25;;
32780;SDS011;19136;47.032;15.502;2022-10-22T00:56:59;42.50;;;23.23;;
32780;SDS011;19136;47.032;15.502;2022-10-22T00:59:24;54.83;;;24.88;;
32780;SDS011;19136;47.032;15.502;2022-10-22T01:01:50;42.55;;;22.98;;
32780;SDS011;19136;47.032;15.502;2022-10-22T01:04:17;38.95;;;22.30;;
32780;SDS011;19136;47.032;15.502;2022-10-22T01:06:43;37.45;;;22.50;;
32780;SDS011;19136;47.032;15.502;2022-10-22T01:13:00;36.95;;;21.42;;
32780;SDS011;19136;47.032;15.502;2022-10-22T01:18:01;35.95;;;20.90;;
32780;SDS011;19136;47.032;15.502;2022-10-22T01:25:43;43.53;;;24.05;;
32780;SDS011;19136;47.032;15.502;2022-10-22T01:28:34;37.25;;;21.77;;
32780;SDS011;19136;47.032;15.502;2022-10-22T01:31:01;32.08;;;20.80;;
32780;SDS011;19136;47.032;15.502;2022-10-22T01:33:27;35.63;;;21.65;;
32780;SDS011;19136;47.032;15.502;2022-10-22T01:35:53;38.03;;;21.42;;
32780;SDS011;19136;47.032;15.502;2022-10-22T01:38:19;42.17;;;23.25;;
32780;SDS011;19136;47.032;15.502;2022-10-22T01:40:46;41.17;;;22.48;;
32780;SDS011;19136;47.032;15.502;2022-10-22T01:43:12;38.83;;;21.58;;
32780;SDS011;19136;47.032;15.502;2022-10-22T01:45:42;41.33;;;21.40;;
32780;SDS011;19136;47.032;15.502;2022-10-22T01:51:14;38.03;;;21.92;;
32780;SDS011;19136;47.032;15.502;2022-10-22T01:54:02;41.95;;;23.00;;
32780;SDS011;19136;47.032;15.502;2022-10-22T02:02:23;36.85;;;20.67;;
32780;SDS011;19136;47.032;15.502;2022-10-22T02:04:57;34.47;;;21.70;;
32780;SDS011;19136;47.032;15.502;2022-10-22T02:07:35;40.55;;;21.17;;
32780;SDS011;19136;47.032;15.502;2022-10-22T02:10:04;46.67;;;22.67;;
32780;SDS011;19136;47.032;15.502;2022-10-22T02:12:34;37.53;;;22.02;;
32780;SDS011;19136;47.032;15.502;2022-10-22T02:15:01;38.17;;;22.17;;
32780;SDS011;19136;47.032;15.502;2022-10-22T02:17:29;41.33;;;23.25;;
32780;SDS011;19136;47.032;15.502;2022-10-22T02:19:56;46.75;;;21.27;;
32780;SDS011;19136;47.032;15.502;2022-10-22T02:22:24;35.72;;;21.95;;
32780;SDS011;19136;47.032;15.502;2022-10-22T02:24:50;30.77;;;20.80;;
32780;SDS011;19136;47.032;15.502;2022-10-22T02:30:08;38.33;;;22.60;;
32780;SDS011;19136;47.032;15.502;2022-10-22T02:32:38;34.03;;;20.42;;
32780;SDS011;19136;47.032;15.502;2022-10-22T02:35:05;43.58;;;21.27;;
32780;SDS011;19136;47.032;15.502;2022-10-22T02:37:31;47.97;;;24.10;;
32780;SDS011;19136;47.032;15.502;2022-10-22T02:39:57;46.30;;;22.20;;
32780;SDS011;19136;47.032;15.502;2022-10-22T02:42:23;35.50;;;20.77;;
32780;SDS011;19136;47.032;15.502;2022-10-22T02:44:50;35.13;;;20.67;;
32780;SDS011;19136;47.032;15.502;2022-10-22T02:47:15;31.30;;;19.83;;
32780;SDS011;19136;47.032;15.502;2022-10-22T02:49:41;36.33;;;20.60;;
32780;SDS011;19136;47.032;15.502;2022-10-22T02:52:06;36.30;;;22.25;;
32780;SDS011;19136;47.032;15.502;2022-10-22T02:54:32;43.67;;;21.67;;
32780;SDS011;19136;47.032;15.502;2022-10-22T02:56:57;37.72;;;20.90;;
32780;SDS011;19136;47.032;15.502;2022-10-22T02:59:23;36.22;;;20.83;;
32780;SDS011;19136;47.032;15.502;2022-10-22T03:01:48;36.15;;;20.85;;
32780;SDS011;19136;47.032;15.502;2022-10-22T03:04:14;40.45;;;20.65;;
32780;SDS011;19136;47.032;15.502;2022-10-22T03:06:40;40.20;;;21.17;;
32780;SDS011;19136;47.032;15.502;2022-10-22T03:09:08;33.35;;;20.98;;
32780;SDS011;19136;47.032;15.502;2022-10-22T03:11:34;36.38;;;20.80;;
32780;SDS011;19136;47.032;15.502;2022-10-22T03:13:59;45.90;;;21.33;;
32780;SDS011;19136;47.032;15.502;2022-10-22T03:16:24;43.78;;;20.85;;
32780;SDS011;19136;47.032;15.502;2022-10-22T03:18:50;41.13;;;22.67;;
32780;SDS011;19136;47.032;15.502;2022-10-22T03:21:20;38.67;;;21.63;;
32780;SDS011;19136;47.032;15.502;2022-10-22T03:23:52;38.60;;;21.75;;
32780;SDS011;19136;47.032;15.502;2022-10-22T03:26:18;43.05;;;24.00;;
32780;SDS011;19136;47.032;15.502;2022-10-22T03:28:43;38.78;;;22.40;;
32780;SDS011;19136;47.032;15.502;2022-10-22T03:31:11;34.47;;;21.02;;
32780;SDS011;19136;47.032;15.502;2022-10-22T03:33:37;41.17;;;20.33;;
32780;SDS011;19136;47.032;15.502;2022-10-22T03:36:02;46.13;;;23.35;;
32780;SDS011;19136;47.032;15.502;2022-10-22T03:38:28;42.55;;;20.98;;
32780;SDS011;19136;47.032;15.502;2022-10-22T03:40:54;36.22;;;21.92;;
32780;SDS011;19136;47.032;15.502;2022-10-22T03:43:20;32.35;;;20.17;;
32780;SDS011;19136;47.032;15.502;2022-10-22T03:45:45;34.65;;;21.35;;
32780;SDS011;19136;47.032;15.502;2022-10-22T03:48:11;36.80;;;20.33;;
32780;SDS011;19136;47.032;15.502;2022-10-22T03:50:36;39.47;;;21.90;;
32780;SDS011;19136;47.032;15.502;2022-10-22T03:53:02;39.60;;;22.13;;
32780;SDS011;19136;47.032;15.502;2022-10-22T03:55:28;37.20;;;22.42;;
32780;SDS011;19136;47.032;15.502;2022-10-22T03:57:53;46.20;;;23.50;;
32780;SDS011;19136;47.032;15.502;2022-10-22T04:00:19;42.22;;;21.30;;
32780;SDS011;19136;47.032;15.502;2022-10-22T04:02:44;43.60;;;23.30;;
32780;SDS011;19136;47.032;15.502;2022-10-22T04:05:10;44.28;;;21.50;;
32780;SDS011;19136;47.032;15.502;2022-10-22T04:07:35;35.45;;;21.17;;
32780;SDS011;19136;47.032;15.502;2022-10-22T04:10:01;36.03;;;20.60;;
32780;SDS011;19136;47.032;15.502;2022-10-22T04:12:26;36.03;;;21.75;;
32780;SDS011;19136;47.032;15.502;2022-10-22T04:14:52;54.63;;;23.42;;
32780;SDS011;19136;47.032;15.502;2022-10-22T04:17:17;38.45;;;22.27;;
32780;SDS011;19136;47.032;15.502;2022-10-22T04:19:43;37.55;;;20.80;;
32780;SDS011;19136;47.032;15.502;2022-10-22T04:22:08;39.85;;;20.45;;
32780;SDS011;19136;47.032;15.502;2022-10-22T04:24:34;40.20;;;22.02;;
32780;SDS011;19136;47.032;15.502;2022-10-22T04:26:59;34.80;;;20.73;;
32780;SDS011;19136;47.032;15.502;2022-10-22T04:29:26;42.50;;;20.38;;
32780;SDS011;19136;47.032;15.502;2022-10-22T04:31:51;40.47;;;21.60;;
32780;SDS011;19136;47.032;15.502;2022-10-22T04:34:17;44.40;;;24.35;;
32780;SDS011;19136;47.032;15.502;2022-10-22T04:36:43;41.47;;;21.58;;
32780;SDS011;19136;47.032;15.502;2022-10-22T04:39:08;39.63;;;21.85;;
32780;SDS011;19136;47.032;15.502;2022-10-22T04:41:34;35.22;;;22.25;;
32780;SDS011;19136;47.032;15.502;2022-10-22T04:44:01;44.63;;;23.80;;
32780;SDS011;19136;47.032;15.502;2022-10-22T04:46:28;35.92;;;22.73;;
32780;SDS011;19136;47.032;15.502;2022-10-22T04:48:54;34.72;;;20.23;;
32780;SDS011;19136;47.032;15.502;2022-10-22T04:51:20;40.58;;;24.20;;
32780;SDS011;19136;47.032;15.502;2022-10-22T04:53:47;45.85;;;23.13;;
32780;SDS011;19136;47.032;15.502;2022-10-22T04:56:14;36.65;;;20.55;;
32780;SDS011;19136;47.032;15.502;2022-10-22T04:58:42;36.67;;;20.92;;
32780;SDS011;19136;47.032;15.502;2022-10-22T05:04:01;36.78;;;20.30;;
32780;SDS011;19136;47.032;15.502;2022-10-22T05:06:28;38.58;;;21.98;;
32780;SDS011;19136;47.032;15.502;2022-10-22T05:08:56;44.50;;;23.27;;
32780;SDS011;19136;47.032;15.502;2022-10-22T05:11:25;40.42;;;22.90;;
32780;SDS011;19136;47.032;15.502;2022-10-22T05:13:52;45.75;;;23.17;;
32780;SDS011;19136;47.032;15.502;2022-10-22T05:16:19;40.17;;;21.65;;
32780;SDS011;19136;47.032;15.502;2022-10-22T05:18:45;40.03;;;21.65;;
32780;SDS011;19136;47.032;15.502;2022-10-22T05:21:12;43.28;;;23.33;;
32780;SDS011;19136;47.032;15.502;2022-10-22T05:23:39;48.65;;;24.67;;
32780;SDS011;19136;47.032;15.502;2022-10-22T05:26:05;48.78;;;26.77;;
32780;SDS011;19136;47.032;15.502;2022-10-22T05:28:32;37.63;;;23.70;;
32780;SDS011;19136;47.032;15.502;2022-10-22T05:30:59;42.97;;;22.40;;
32780;SDS011;19136;47.032;15.502;2022-10-22T05:33:25;35.33;;;22.25;;
32780;SDS011;19136;47.032;15.502;2022-10-22T05:35:51;44.95;;;24.67;;
32780;SDS011;19136;47.032;15.502;2022-10-22T05:38:17;40.50;;;22.73;;
32780;SDS011;19136;47.032;15.502;2022-10-22T05:40:43;40.75;;;22.38;;
32780;SDS011;19136;47.032;15.502;2022-10-22T05:43:08;37.97;;;22.35;;
32780;SDS011;19136;47.032;15.502;2022-10-22T05:45:43;37.42;;;21.25;;
32780;SDS011;19136;47.032;15.502;2022-10-22T05:48:09;43.03;;;22.75;;
32780;SDS011;19136;47.032;15.502;2022-10-22T05:50:34;33.97;;;21.13;;
32780;SDS011;19136;47.032;15.502;2022-10-22T05:53:01;43.10;;;23.52;;
32780;SDS011;19136;47.032;15.502;2022-10-22T05:55:27;45.38;;;21.63;;
32780;SDS011;19136;47.032;15.502;2022-10-22T05:57:53;50.42;;;22.88;;
32780;SDS011;19136;47.032;15.502;2022-10-22T06:00:18;37.92;;;21.90;;
32780;SDS011;19136;47.032;15.502;2022-10-22T06:02:48;40.63;;;22.17;;
32780;SDS011;19136;47.032;15.502;2022-10-22T06:05:14;38.17;;;22.73;;
32780;SDS011;19136;47.032;15.502;2022-10-22T06:07:39;39.58;;;21.75;;
32780;SDS011;19136;47.032;15.502;2022-10-22T06:10:05;34.13;;;21.48;;
32780;SDS011;19136;47.032;15.502;2022-10-22T06:12:34;34.50;;;20.95;;
32780;SDS011;19136;47.032;15.502;2022-10-22T06:15:00;33.70;;;20.63;;
32780;SDS011;19136;47.032;15.502;2022-10-22T06:17:25;42.70;;;21.95;;
32780;SDS011;19136;47.032;15.502;2022-10-22T06:19:51;36.50;;;21.67;;
32780;SDS011;19136;47.032;15.502;2022-10-22T06:22:16;37.90;;;21.05;;
32780;SDS011;19136;47.032;15.502;2022-10-22T06:24:42;33.60;;;20.33;;
32780;SDS011;19136;47.032;15.502;2022-10-22T06:27:07;44.78;;;22.65;;
32780;SDS011;19136;47.032;15.502;2022-10-22T06:29:33;44.28;;;22.35;;
32780;SDS011;19136;47.032;15.502;2022-10-22T06:31:59;36.70;;;22.58;;
32780;SDS011;19136;47.032;15.502;2022-10-22T06:34:24;39.38;;;22.73;;
32780;SDS011;19136;47.032;15.502;2022-10-22T06:36:50;45.08;;;22.55;;
32780;SDS011;19136;47.032;15.502;2022-10-22T06:39:16;43.53;;;24.08;;
32780;SDS011;19136;47.032;15.502;2022-10-22T06:41:42;36.80;;;21.25;;
32780;SDS011;19136;47.032;15.502;2022-10-22T06:44:10;41.08;;;22.02;;
32780;SDS011;19136;47.032;15.502;2022-10-22T06:46:38;35.97;;;21.38;;
32780;SDS011;19136;47.032;15.502;2022-10-22T06:49:04;42.42;;;22.27;;
32780;SDS011;19136;47.032;15.502;2022-10-22T06:51:30;35.35;;;21.15;;
32780;SDS011;19136;47.032;15.502;2022-10-22T06:53:56;38.63;;;19.70;;
32780;SDS011;19136;47.032;15.502;2022-10-22T06:56:23;37.08;;;20.90;;
32780;SDS011;19136;47.032;15.502;2022-10-22T06:58:50;45.33;;;23.77;;
32780;SDS011;19136;47.032;15.502;2022-10-22T07:01:18;38.53;;;21.35;;
32780;SDS011;19136;47.032;15.502;2022-10-22T07:03:44;40.78;;;20.90;;
32780;SDS011;19136;47.032;15.502;2022-10-22T07:06:12;36.10;;;21.98;;
32780;SDS011;19136;47.032;15.502;2022-10-22T07:08:38;38.08;;;20.83;;
32780;SDS011;19136;47.032;15.502;2022-10-22T07:11:06;50.50;;;23.30;;
32780;SDS011;19136;47.032;15.502;2022-10-22T07:13:36;36.50;;;20.05;;
32780;SDS011;19136;47.032;15.502;2022-10-22T07:16:02;38.85;;;21.50;;
32780;SDS011;19136;47.032;15.502;2022-10-22T07:18:28;37.15;;;22.02;;
32780;SDS011;19136;47.032;15.502;2022-10-22T07:20:54;39.83;;;21.15;;
32780;SDS011;19136;47.032;15.502;2022-10-22T07:23:20;40.30;;;22.30;;
32780;SDS011;19136;47.032;15.502;2022-10-22T07:25:45;36.30;;;20.92;;
32780;SDS011;19136;47.032;15.502;2022-10-22T07:28:11;35.40;;;21.27;;
32780;SDS011;19136;47.032;15.502;2022-10-22T07:30:37;42.03;;;21.33;;
32780;SDS011;19136;47.032;15.502;2022-10-22T07:33:03;37.20;;;19.90;;
32780;SDS011;19136;47.032;15.502;2022-10-22T07:35:28;35.95;;;21.38;;
32780;SDS011;19136;47.032;15.502;2022-10-22T07:37:54;40.55;;;21.38;;
32780;SDS011;19136;47.032;15.502;2022-10-22T07:40:20;34.88;;;20.15;;
32780;SDS011;19136;47.032;15.502;2022-10-22T07:42:45;32.45;;;19.88;;
32780;SDS011;19136;47.032;15.502;2022-10-22T07:45:11;48.38;;;21.63;;
32780;SDS011;19136;47.032;15.502;2022-10-22T07:47:36;34.00;;;20.88;;
32780;SDS011;19136;47.032;15.502;2022-10-22T07:50:02;37.55;;;19.45;;
32780;SDS011;19136;47.032;15.502;2022-10-22T07:52:28;32.53;;;20.05;;
32780;SDS011;19136;47.032;15.502;2022-10-22T07:54:54;40.85;;;21.70;;
32780;SDS011;19136;47.032;15.502;2022-10-22T07:57:19;36.17;;;20.83;;
32780;SDS011;19136;47.032;15.502;2022-10-22T07:59:45;52.90;;;21.13;;
32780;SDS011;19136;47.032;15.502;2022-10-22T08:02:10;50.67;;;21.00;;
32780;SDS011;19136;47.032;15.502;2022-10-22T08:04:36;34.45;;;19.98;;
32780;SDS011;19136;47.032;15.502;2022-10-22T08:07:02;39.15;;;21.33;;
32780;SDS011;19136;47.032;15.502;2022-10-22T08:09:27;38.90;;;19.58;;
32780;SDS011;19136;47.032;15.502;2022-10-22T08:11:53;36.45;;;21.25;;
32780;SDS011;19136;47.032;15.502;2022-10-22T08:14:18;35.65;;;19.65;;
32780;SDS011;19136;47.032;15.502;2022-10-22T08:16:44;36.88;;;20.17;;
32780;SDS011;19136;47.032;15.502;2022-10-22T08:19:10;33.25;;;18.65;;
32780;SDS011;19136;47.032;15.502;2022-10-22T08:21:36;29.83;;;15.60;;
32780;SDS011;19136;47.032;15.502;2022-10-22T08:24:01;36.53;;;15.88;;
32780;SDS011;19136;47.032;15.502;2022-10-22T08:26:27;34.60;;;16.60;;
32780;SDS011;19136;47.032;15.502;2022-10-22T08:28:52;32.60;;;16.67;;
32780;SDS011;19136;47.032;15.502;2022-10-22T08:31:18;38.33;;;17.27;;
32780;SDS011;19136;47.032;15.502;2022-10-22T08:33:44;33.95;;;16.90;;
32780;SDS011;19136;47.032;15.502;2022-10-22T08:36:09;34.55;;;15.93;;
32780;SDS011;19136;47.032;15.502;2022-10-22T08:38:35;31.27;;;16.80;;
32780;SDS011;19136;47.032;15.502;2022-10-22T08:41:15;34.75;;;16.65;;
32780;SDS011;19136;47.032;15.502;2022-10-22T08:49:33;34.00;;;15.95;;
32780;SDS011;19136;47.032;15.502;2022-10-22T08:52:01;34.88;;;16.55;;
32780;SDS011;19136;47.032;15.502;2022-10-22T08:57:03;35.13;;;15.15;;
32780;SDS011;19136;47.032;15.502;2022-10-22T09:05:09;33.20;;;15.10;;
32780;SDS011;19136;47.032;15.502;2022-10-22T09:07:57;39.45;;;15.25;;
32780;SDS011;19136;47.032;15.502;2022-10-22T09:10:31;33.72;;;14.25;;
32780;SDS011;19136;47.032;15.502;2022-10-22T09:12:59;31.85;;;14.40;;
32780;SDS011;19136;47.032;15.502;2022-10-22T09:15:25;36.20;;;15.80;;
32780;SDS011;19136;47.032;15.502;2022-10-22T09:20:44;31.80;;;15.30;;
32780;SDS011;19136;47.032;15.502;2022-10-22T09:25:49;33.40;;;13.50;;
32780;SDS011;19136;47.032;15.502;2022-10-22T09:28:15;36.28;;;15.13;;
32780;SDS011;19136;47.032;15.502;2022-10-22T09:30:41;31.48;;;14.98;;
32780;SDS011;19136;47.032;15.502;2022-10-22T09:33:14;28.73;;;13.70;;
32780;SDS011;19136;47.032;15.502;2022-10-22T09:38:40;29.77;;;13.80;;
32780;SDS011;19136;47.032;15.502;2022-10-22T09:41:11;25.60;;;13.02;;
32780;SDS011;19136;47.032;15.502;2022-10-22T09:43:37;23.77;;;13.50;;
32780;SDS011;19136;47.032;15.502;2022-10-22T09:46:03;30.88;;;13.57;;
32780;SDS011;19136;47.032;15.502;2022-10-22T09:48:34;27.30;;;13.68;;
32780;SDS011;19136;47.032;15.502;2022-10-22T09:51:22;28.35;;;13.15;;
32780;SDS011;19136;47.032;15.502;2022-10-22T09:53:56;27.20;;;12.95;;
32780;SDS011;19136;47.032;15.502;2022-10-22T09:56:24;24.23;;;12.35;;
32780;SDS011;19136;47.032;15.502;2022-10-22T09:58:52;29.63;;;12.32;;
32780;SDS011;19136;47.032;15.502;2022-10-22T10:01:24;32.92;;;14.85;;
32780;SDS011;19136;47.032;15.502;2022-10-22T10:04:06;29.10;;;14.63;;
32780;SDS011;19136;47.032;15.502;2022-10-22T10:06:34;29.13;;;13.82;;
32780;SDS011;19136;47.032;15.502;2022-10-22T10:09:05;28.23;;;12.93;;
32780;SDS011;19136;47.032;15.502;2022-10-22T10:11:58;27.48;;;12.98;;
32780;SDS011;19136;47.032;15.502;2022-10-22T10:19:56;26.63;;;13.00;;
32780;SDS011;19136;47.032;15.502;2022-10-22T10:27:37;33.33;;;14.15;;
32780;SDS011;19136;47.032;15.502;2022-10-22T10:30:19;28.15;;;13.77;;
32780;SDS011;19136;47.032;15.502;2022-10-22T10:33:02;21.15;;;12.38;;
32780;SDS011;19136;47.032;15.502;2022-10-22T10:36:10;22.52;;;12.88;;
32780;SDS011;19136;47.032;15.502;2022-10-22T10:38:44;25.40;;;12.60;;
32780;SDS011;19136;47.032;15.502;2022-10-22T10:41:35;24.48;;;13.18;;
32780;SDS011;19136;47.032;15.502;2022-10-22T10:46:32;27.25;;;11.43;;
32780;SDS011;19136;47.032;15.502;2022-10-22T10:49:08;23.15;;;12.88;;
32780;SDS011;19136;47.032;15.502;2022-10-22T11:02:50;27.42;;;12.13;;
32780;SDS011;19136;47.032;15.502;2022-10-22T11:06:02;27.92;;;14.82;;
32780;SDS011;19136;47.032;15.502;2022-10-22T11:09:01;28.60;;;14.57;;
32780;SDS011;19136;47.032;15.502;2022-10-22T11:11:53;29.58;;;14.30;;
32780;SDS011;19136;47.032;15.502;2022-10-22T11:14:29;22.70;;;12.27;;
32780;SDS011;19136;47.032;15.502;2022-10-22T11:16:58;21.98;;;11.90;;
32780;SDS011;19136;47.032;15.502;2022-10-22T11:19:35;21.42;;;11.70;;
32780;SDS011;19136;47.032;15.502;2022-10-22T11:22:14;28.88;;;12.82;;
32780;SDS011;19136;47.032;15.502;2022-10-22T11:25:00;31.92;;;13.88;;
32780;SDS011;19136;47.032;15.502;2022-10-22T11:30:26;42.85;;;16.33;;
32780;SDS011;19136;47.032;15.502;2022-10-22T11:32:56;34.20;;;15.20;;
32780;SDS011;19136;47.032;15.502;2022-10-22T11:35:29;33.88;;;17.00;;
32780;SDS011;19136;47.032;15.502;2022-10-22T11:37:57;32.85;;;16.15;;
32780;SDS011;19136;47.032;15.502;2022-10-22T11:40:36;33.60;;;18.67;;
32780;SDS011;19136;47.032;15.502;2022-10-22T11:43:10;40.92;;;19.65;;
32780;SDS011;19136;47.032;15.502;2022-10-22T11:45:37;34.33;;;17.88;;
32780;SDS011;19136;47.032;15.502;2022-10-22T11:50:46;30.05;;;18.38;;
32780;SDS011;19136;47.032;15.502;2022-10-22T11:53:20;33.70;;;19.77;;
32780;SDS011;19136;47.032;15.502;2022-10-22T11:55:55;32.95;;;19.23;;
32780;SDS011;19136;47.032;15.502;2022-10-22T12:00:54;29.55;;;16.25;;
32780;SDS011;19136;47.032;15.502;2022-10-22T12:17:15;24.98;;;14.50;;
32780;SDS011;19136;47.032;15.502;2022-10-22T12:19:46;23.42;;;13.35;;
32780;SDS011;19136;47.032;15.502;2022-10-22T12:22:30;21.10;;;13.07;;
32780;SDS011;19136;47.032;15.502;2022-10-22T12:24:59;29.92;;;15.35;;
32780;SDS011;19136;47.032;15.502;2022-10-22T12:27:36;28.48;;;15.68;;
32780;SDS011;19136;47.032;15.502;2022-10-22T12:32:42;28.75;;;16.27;;
32780;SDS011;19136;47.032;15.502;2022-10-22T12:35:18;27.10;;;16.30;;
32780;SDS011;19136;47.032;15.502;2022-10-22T12:37:50;27.55;;;15.35;;
32780;SDS011;19136;47.032;15.502;2022-10-22T12:40:34;27.00;;;16.10;;
32780;SDS011;19136;47.032;15.502;2022-10-22T12:43:01;29.25;;;16.65;;
32780;SDS011;19136;47.032;15.502;2022-10-22T12:45:32;30.52;;;16.63;;
32780;SDS011;19136;47.032;15.502;2022-10-22T12:48:00;33.63;;;16.85;;
32780;SDS011;19136;47.032;15.502;2022-10-22T12:53:11;29.88;;;17.15;;
32780;SDS011;19136;47.032;15.502;2022-10-22T12:55:42;33.08;;;18.42;;
32780;SDS011;19136;47.032;15.502;2022-10-22T12:58:12;35.35;;;19.02;;
32780;SDS011;19136;47.032;15.502;2022-10-22T13:00:41;29.58;;;17.52;;
32780;SDS011;19136;47.032;15.502;2022-10-22T13:03:06;34.40;;;19.05;;
32780;SDS011;19136;47.032;15.502;2022-10-22T13:05:33;40.13;;;20.08;;
32780;SDS011;19136;47.032;15.502;2022-10-22T13:08:06;49.78;;;25.20;;
32780;SDS011;19136;47.032;15.502;2022-10-22T13:10:40;40.22;;;24.17;;
32780;SDS011;19136;47.032;15.502;2022-10-22T13:13:06;38.90;;;21.55;;
32780;SDS011;19136;47.032;15.502;2022-10-22T13:18:02;39.53;;;20.38;;
32780;SDS011;19136;47.032;15.502;2022-10-22T13:20:53;33.47;;;20.80;;
32780;SDS011;19136;47.032;15.502;2022-10-22T13:23:22;38.28;;;21.58;;
32780;SDS011;19136;47.032;15.502;2022-10-22T13:25:56;37.90;;;20.08;;
32780;SDS011;19136;47.032;15.502;2022-10-22T13:28:23;39.30;;;20.92;;
32780;SDS011;19136;47.032;15.502;2022-10-22T13:30:53;38.35;;;21.13;;
32780;SDS011;19136;47.032;15.502;2022-10-22T13:35:53;41.00;;;22.08;;
32780;SDS011;19136;47.032;15.502;2022-10-22T13:38:21;42.95;;;24.10;;
32780;SDS011;19136;47.032;15.502;2022-10-22T13:40:48;53.63;;;29.20;;
32780;SDS011;19136;47.032;15.502;2022-10-22T13:43:15;48.05;;;26.45;;
32780;SDS011;19136;47.032;15.502;2022-10-22T13:45:41;46.30;;;24.52;;
32780;SDS011;19136;47.032;15.502;2022-10-22T13:48:10;38.55;;;23.70;;
32780;SDS011;19136;47.032;15.502;2022-10-22T13:50:38;45.97;;;24.58;;
32780;SDS011;19136;47.032;15.502;2022-10-22T13:53:03;45.80;;;25.08;;
32780;SDS011;19136;47.032;15.502;2022-10-22T13:55:29;40.17;;;24.02;;
32780;SDS011;19136;47.032;15.502;2022-10-22T13:57:55;41.92;;;25.25;;
32780;SDS011;19136;47.032;15.502;2022-10-22T14:00:26;43.28;;;24.48;;
32780;SDS011;19136;47.032;15.502;2022-10-22T14:02:52;58.70;;;32.22;;
32780;SDS011;19136;47.032;15.502;2022-10-22T14:05:18;64.05;;;33.67;;
32780;SDS011;19136;47.032;15.502;2022-10-22T14:07:44;54.75;;;31.02;;
32780;SDS011;19136;47.032;15.502;2022-10-22T14:10:28;47.58;;;27.90;;
32780;SDS011;19136;47.032;15.502;2022-10-22T14:12:53;52.25;;;28.55;;
32780;SDS011;19136;47.032;15.502;2022-10-22T14:15:20;59.47;;;30.25;;
32780;SDS011;19136;47.032;15.502;2022-10-22T14:17:48;55.97;;;30.00;;
32780;SDS011;19136;47.032;15.502;2022-10-22T14:20:19;47.83;;;26.65;;
32780;SDS011;19136;47.032;15.502;2022-10-22T14:22:46;70.78;;;34.15;;
32780;SDS011;19136;47.032;15.502;2022-10-22T14:25:14;64.03;;;31.90;;
32780;SDS011;19136;47.032;15.502;2022-10-22T14:27:41;76.57;;;37.38;;
32780;SDS011;19136;47.032;15.502;2022-10-22T14:30:07;53.05;;;28.50;;
32780;SDS011;19136;47.032;15.502;2022-10-22T14:32:33;55.42;;;29.58;;
32780;SDS011;19136;47.032;15.502;2022-10-22T14:34:59;78.97;;;37.72;;
32780;SDS011;19136;47.032;15.502;2022-10-22T14:37:25;56.42;;;30.02;;
32780;SDS011;19136;47.032;15.502;2022-10-22T14:39:51;52.75;;;28.90;;
32780;SDS011;19136;47.032;15.502;2022-10-22T14:42:24;53.97;;;29.30;;
32780;SDS011;19136;47.032;15.502;2022-10-22T14:44:50;80.20;;;40.17;;
32780;SDS011;19136;47.032;15.502;2022-10-22T14:47:15;82.63;;;36.17;;
32780;SDS011;19136;47.032;15.502;2022-10-22T14:49:41;50.72;;;27.00;;
32780;SDS011;19136;47.032;15.502;2022-10-22T14:52:06;51.65;;;29.75;;
32780;SDS011;19136;47.032;15.502;2022-10-22T14:54:32;50.63;;;26.65;;
32780;SDS011;19136;47.032;15.502;2022-10-22T14:56:59;41.45;;;23.20;;
32780;SDS011;19136;47.032;15.502;2022-10-22T14:59:25;62.25;;;31.27;;
32780;SDS011;19136;47.032;15.502;2022-10-22T15:01:51;57.80;;;28.63;;
32780;SDS011;19136;47.032;15.502;2022-10-22T15:04:16;48.25;;;25.73;;
32780;SDS011;19136;47.032;15.502;2022-10-22T15:06:42;58.22;;;31.38;;
32780;SDS011;19136;47.032;15.502;2022-10-22T15:09:07;41.75;;;23.73;;
32780;SDS011;19136;47.032;15.502;2022-10-22T15:11:33;38.92;;;23.27;;
32780;SDS011;19136;47.032;15.502;2022-10-22T15:13:59;41.40;;;23.60;;
32780;SDS011;19136;47.032;15.502;2022-10-22T15:16:24;41.92;;;25.38;;
32780;SDS011;19136;47.032;15.502;2022-10-22T15:18:50;51.67;;;28.15;;
32780;SDS011;19136;47.032;15.502;2022-10-22T15:21:18;39.10;;;25.27;;
32780;SDS011;19136;47.032;15.502;2022-10-22T15:23:45;57.50;;;30.95;;
32780;SDS011;19136;47.032;15.502;2022-10-22T15:26:12;129.32;;;51.15;;
32780;SDS011;19136;47.032;15.502;2022-10-22T15:28:38;90.57;;;41.65;;
32780;SDS011;19136;47.032;15.502;2022-10-22T15:31:04;52.10;;;30.42;;
32780;SDS011;19136;47.032;15.502;2022-10-22T15:33:31;104.60;;;46.05;;
32780;SDS011;19136;47.032;15.502;2022-10-22T15:35:57;70.88;;;35.65;;
32780;SDS011;19136;47.032;15.502;2022-10-22T15:38:26;55.20;;;29.58;;
32780;SDS011;19136;47.032;15.502;2022-10-22T15:43:44;41.65;;;26.77;;
32780;SDS011;19136;47.032;15.502;2022-10-22T15:46:12;40.90;;;24.25;;
32780;SDS011;19136;47.032;15.502;2022-10-22T15:48:40;39.20;;;23.00;;
32780;SDS011;19136;47.032;15.502;2022-10-22T15:51:07;35.83;;;21.73;;
32780;SDS011;19136;47.032;15.502;2022-10-22T15:53:34;39.92;;;23.52;;
32780;SDS011;19136;47.032;15.502;2022-10-22T15:55:59;30.88;;;19.20;;
32780;SDS011;19136;47.032;15.502;2022-10-22T15:58:25;39.40;;;23.90;;
32780;SDS011;19136;47.032;15.502;2022-10-22T16:00:51;32.08;;;18.92;;
32780;SDS011;19136;47.032;15.502;2022-10-22T16:03:16;37.33;;;22.75;;
32780;SDS011;19136;47.032;15.502;2022-10-22T16:05:48;44.10;;;25.15;;